Time;durP1;ratioP1;P1;durP2;ratioP2;P2;SDS_P1;SDS_P2;PMS_P1;PMS_P2;Temp;Humidity;BMP_temperature;BMP_pressure;BME280_temperature;BME280_humidity;BME280_pressure;Samples;Min_cycle;Max_cycle;Signal;HPM_P1;HPM_P2
2022/05/30 00:01:23;;;;;;;5.10;4.10;;;;;;;15.52;83.36;100505.96;107293;1251;61892;-70
2022/05/30 00:03:51;;;;;;;4.70;4.00;;;;;;;15.51;83.55;100499.61;107213;1251;60432;-71
2022/05/30 00:06:22;;;;;;;7.30;4.10;;;;;;;15.54;83.11;100501.48;107268;1251;73978;-73
2022/05/30 00:08:51;;;;;;;4.90;4.00;;;;;;;15.59;83.47;100501.61;107252;1251;71945;-70
2022/05/30 00:11:21;;;;;;;6.70;3.80;;;;;;;15.57;83.77;100495.27;107251;1250;68573;-74
2022/05/30 00:13:50;;;;;;;4.60;3.50;;;;;;;15.51;84.20;100499.41;107272;1252;73915;-74
2022/05/30 00:16:22;;;;;;;5.80;4.20;;;;;;;15.51;83.84;100514.16;107224;1251;62806;-72
2022/05/30 00:18:52;;;;;;;5.80;4.00;;;;;;;15.49;84.48;100516.80;107265;1250;61692;-75
2022/05/30 00:21:24;;;;;;;4.80;4.20;;;;;;;15.50;84.49;100522.77;107257;1251;74462;-75
2022/05/30 00:23:54;;;;;;;5.00;4.50;;;;;;;15.52;84.96;100512.06;107229;1251;72068;-71
2022/05/30 00:26:24;;;;;;;5.80;4.50;;;;;;;15.55;84.85;100508.48;107260;1251;70490;-71
2022/05/30 00:28:52;;;;;;;7.50;4.50;;;;;;;15.57;84.87;100511.63;107200;1251;75367;-68
2022/05/30 00:31:22;;;;;;;4.50;3.90;;;;;;;15.58;84.71;100512.02;107171;1251;63577;-70
2022/05/30 00:33:51;;;;;;;7.20;4.90;;;;;;;15.58;85.34;100525.05;107005;1252;60477;-70
2022/05/30 00:36:20;;;;;;;5.50;4.40;;;;;;;15.60;84.59;100525.36;107284;1250;73261;-71
2022/05/30 00:38:49;;;;;;;5.70;5.10;;;;;;;15.60;84.85;100532.87;107181;1251;70019;-69
2022/05/30 00:41:18;;;;;;;5.90;4.90;;;;;;;15.56;84.14;100547.18;107236;1251;69896;-71
2022/05/30 00:43:48;;;;;;;5.50;4.40;;;;;;;15.61;84.54;100568.26;107165;1252;72035;-71
2022/05/30 00:46:17;;;;;;;5.80;4.80;;;;;;;15.64;83.60;100586.45;107192;1251;63389;-69
2022/05/30 00:48:53;;;;;;;6.10;4.90;;;;;;;15.66;82.82;100595.95;106988;1254;59176;-71
2022/05/30 00:51:29;;;;;;;7.50;4.50;;;;;;;15.63;83.27;100602.81;107109;1250;72460;-71
2022/05/30 00:54:01;;;;;;;5.60;4.60;;;;;;;15.67;81.84;100596.58;107182;1251;71692;-71
2022/05/30 00:56:37;;;;;;;5.30;4.80;;;;;;;15.63;83.19;100588.80;107118;1250;70107;-71
2022/05/30 00:59:07;;;;;;;6.90;5.10;;;;;;;15.59;85.05;100569.89;107333;1251;71847;-70
2022/05/30 01:01:37;;;;;;;5.70;5.20;;;;;;;15.58;86.56;100574.86;107172;1253;60856;-72
2022/05/30 01:06:59;;;;;;;5.90;4.90;;;;;;;15.61;84.98;100565.42;108549;1253;71736;-70
2022/05/30 01:09:36;;;;;;;6.80;5.30;;;;;;;15.55;87.15;100540.45;107397;1251;70586;-72
2022/05/30 01:12:09;;;;;;;6.50;5.30;;;;;;;15.53;87.36;100510.29;107333;1251;70040;-69
2022/05/30 01:14:43;;;;;;;6.00;5.40;;;;;;;15.46;87.80;100498.44;107316;1252;74585;-73
2022/05/30 01:17:16;;;;;;;7.20;5.50;;;;;;;15.44;86.77;100521.71;107308;1250;63599;-72
2022/05/30 01:20:05;;;;;;;9.20;5.70;;;;;;;15.49;85.58;100561.55;107394;1251;61979;-71
2022/05/30 01:23:07;;;;;;;7.00;5.80;;;;;;;15.52;86.14;100582.84;107307;1251;73893;-72
2022/05/30 01:25:54;;;;;;;10.40;6.20;;;;;;;15.61;85.63;100568.81;107422;1251;70704;-74
2022/05/30 01:28:48;;;;;;;9.00;6.70;;;;;;;15.64;86.79;100562.91;107319;1250;70344;-73
2022/05/30 01:31:17;;;;;;;9.60;6.30;;;;;;;15.56;88.16;100573.98;107207;1250;74789;-72
2022/05/30 01:33:47;;;;;;;9.70;7.00;;;;;;;15.52;87.99;100583.40;107122;1251;62677;-72
2022/05/30 01:36:16;;;;;;;7.60;6.80;;;;;;;15.45;88.08;100582.96;107079;1251;60048;-74
2022/05/30 01:38:45;;;;;;;7.90;6.60;;;;;;;15.46;88.24;100539.86;107105;1251;72719;-71
2022/05/30 01:41:16;;;;;;;12.30;7.70;;;;;;;15.39;88.50;100513.89;107101;1251;71663;-72
2022/05/30 01:43:45;;;;;;;8.90;6.90;;;;;;;15.30;89.76;100514.35;107102;1251;68518;-73
2022/05/30 01:46:19;;;;;;;10.70;7.40;;;;;;;15.31;89.64;100525.38;107123;1251;74043;-69
2022/05/30 01:48:52;;;;;;;11.70;7.70;;;;;;;15.30;89.25;100519.33;107111;1251;62751;-70
2022/05/30 01:51:22;;;;;;;10.10;8.30;;;;;;;15.27;89.27;100507.81;107079;1251;59417;-69
2022/05/30 01:53:53;;;;;;;10.50;8.20;;;;;;;15.21;89.65;100484.35;107030;1250;71882;-70
2022/05/30 01:56:40;;;;;;;14.90;9.40;;;;;;;15.16;90.86;100478.77;107111;1251;70665;-70
2022/05/30 01:59:09;;;;;;;13.40;9.00;;;;;;;15.10;91.57;100474.89;106923;1253;69842;-71
2022/05/30 02:02:10;;;;;;;12.50;8.20;;;;;;;15.04;91.56;100452.28;107078;1251;74304;-70
2022/05/30 02:04:39;;;;;;;11.20;7.80;;;;;;;14.99;91.72;100427.83;107111;1251;60325;-69
2022/05/30 02:07:08;;;;;;;10.50;7.60;;;;;;;14.95;91.47;100420.89;107156;1251;59537;-71
2022/05/30 02:09:37;;;;;;;10.50;7.60;;;;;;;14.89;91.81;100448.17;107080;1251;73882;-71
2022/05/30 02:12:08;;;;;;;10.60;7.80;;;;;;;14.84;92.46;100461.80;107066;1251;72611;-72
2022/05/30 02:14:44;;;;;;;13.20;8.30;;;;;;;14.80;92.25;100450.77;107223;1251;70881;-71
2022/05/30 02:17:14;;;;;;;10.70;7.70;;;;;;;14.81;91.72;100423.63;107202;1251;71754;-73
2022/05/30 02:19:45;;;;;;;10.90;8.50;;;;;;;14.79;91.40;100399.61;107103;1250;60569;-72
2022/05/30 02:22:19;;;;;;;9.80;8.40;;;;;;;14.71;91.88;100371.32;107142;1250;59614;-71
2022/05/30 02:24:49;;;;;;;12.80;9.50;;;;;;;14.68;92.60;100373.05;107173;1251;73746;-69
2022/05/30 02:27:18;;;;;;;13.90;9.60;;;;;;;14.66;93.06;100389.69;107174;1251;70793;-70
2022/05/30 02:29:47;;;;;;;12.90;9.70;;;;;;;14.64;93.58;100391.90;106931;1254;68846;-72
2022/05/30 02:32:19;;;;;;;12.50;9.30;;;;;;;14.64;93.54;100380.89;107125;1251;74139;-70
2022/05/30 02:37:36;;;;;;;13.80;9.00;;;;;;;14.63;94.01;100379.84;107128;1250;60261;-70
2022/05/30 02:40:23;;;;;;;12.40;8.90;;;;;;;14.54;94.40;100370.61;107043;1251;73496;-69
2022/05/30 02:43:01;;;;;;;11.30;9.40;;;;;;;14.50;95.04;100385.92;107110;1251;71024;-70
2022/05/30 02:45:31;;;;;;;11.00;9.00;;;;;;;14.50;95.22;100395.91;107025;1252;70803;-71
2022/05/30 02:48:00;;;;;;;10.90;8.90;;;;;;;14.53;94.84;100396.33;107062;1251;72701;-70
2022/05/30 02:50:29;;;;;;;10.70;8.90;;;;;;;14.50;94.93;100375.92;107025;1250;61274;-73
2022/05/30 02:52:58;;;;;;;11.50;9.40;;;;;;;14.52;95.13;100367.98;107124;1250;60353;-72
2022/05/30 02:55:46;;;;;;;12.00;9.70;;;;;;;14.50;95.04;100353.86;107063;1251;74530;-75
2022/05/30 02:58:16;;;;;;;13.10;9.20;;;;;;;14.51;95.61;100370.42;107101;1251;71857;-72
2022/05/30 03:00:45;;;;;;;15.20;9.70;;;;;;;14.50;95.79;100358.05;107188;1251;70508;-71
2022/05/30 03:03:13;;;;;;;11.90;9.50;;;;;;;14.50;95.82;100345.09;107279;1249;73583;-72
2022/05/30 03:05:42;;;;;;;12.80;9.40;;;;;;;14.49;95.37;100340.65;107274;1249;62792;-71
2022/05/30 03:08:12;;;;;;;10.70;9.30;;;;;;;14.52;95.00;100356.61;107095;1251;61218;-70
2022/05/30 03:11:22;;;;;;;11.80;9.80;;;;;;;14.58;94.47;100355.69;106906;1250;73753;-70
2022/05/30 03:13:51;;;;;;;12.80;10.30;;;;;;;14.58;94.40;100353.27;107140;1248;72738;-71
2022/05/30 03:16:21;;;;;;;15.70;10.00;;;;;;;14.59;94.66;100350.02;107263;1251;68538;-71
2022/05/30 03:18:51;;;;;;;15.30;10.40;;;;;;;14.59;94.80;100354.58;107141;1251;73825;-72
2022/05/30 03:21:21;;;;;;;13.40;9.70;;;;;;;14.61;94.78;100360.73;107287;1249;62594;-70
2022/05/30 03:23:52;;;;;;;14.90;10.60;;;;;;;14.61;95.06;100362.11;107287;1249;61822;-71
2022/05/30 03:26:28;;;;;;;12.70;9.70;;;;;;;14.66;95.29;100357.45;107270;1248;73724;-71
2022/05/30 03:28:58;;;;;;;15.80;10.50;;;;;;;14.71;94.89;100362.59;107270;1251;72129;-70
2022/05/30 03:31:28;;;;;;;13.60;10.70;;;;;;;14.74;94.55;100368.94;107069;1251;70309;-73
2022/05/30 03:33:57;;;;;;;12.40;10.30;;;;;;;14.77;94.63;100370.60;107045;1250;74352;-72
2022/05/30 03:36:26;;;;;;;13.80;10.90;;;;;;;14.79;94.10;100373.55;107027;1251;61372;-72
2022/05/30 03:38:58;;;;;;;13.60;10.20;;;;;;;14.85;94.40;100376.63;108399;1250;61151;-72
2022/05/30 03:41:45;;;;;;;14.50;10.80;;;;;;;14.90;94.17;100373.70;107123;1251;73297;-75
2022/05/30 03:44:32;;;;;;;11.20;10.00;;;;;;;14.93;93.74;100369.73;107171;1251;71882;-72
2022/05/30 03:47:02;;;;;;;14.00;10.00;;;;;;;15.02;93.29;100366.23;107226;1251;69920;-75
2022/05/30 03:49:30;;;;;;;14.10;10.60;;;;;;;15.05;92.74;100362.02;107261;1251;73806;-73
2022/05/30 03:51:59;;;;;;;13.60;10.30;;;;;;;15.09;92.70;100352.61;107346;1250;63020;-69
2022/05/30 03:54:29;;;;;;;12.60;10.50;;;;;;;15.15;92.13;100348.20;107295;1251;62113;-73
2022/05/30 03:56:58;;;;;;;13.70;10.10;;;;;;;15.15;92.46;100341.83;107270;1251;72379;-73
2022/05/30 03:59:28;;;;;;;12.30;9.60;;;;;;;15.19;91.42;100339.02;107254;1250;70662;-70
2022/05/30 04:02:03;;;;;;;14.00;10.90;;;;;;;15.18;91.18;100323.47;107254;1251;71078;-70
2022/05/30 04:04:32;;;;;;;14.20;11.00;;;;;;;15.21;91.62;100312.97;107242;1250;72848;-69
2022/05/30 04:07:01;;;;;;;15.60;10.50;;;;;;;15.25;91.21;100307.52;107267;1251;62512;-73
2022/05/30 04:09:31;;;;;;;11.50;9.50;;;;;;;15.26;90.59;100312.83;107187;1251;59263;-71
2022/05/30 04:12:03;;;;;;;13.20;10.60;;;;;;;15.28;90.80;100305.30;107102;1251;73010;-75
2022/05/30 04:14:38;;;;;;;14.00;10.20;;;;;;;15.29;90.99;100297.06;107125;1251;73145;-74
2022/05/30 04:17:11;;;;;;;12.60;9.70;;;;;;;15.35;90.89;100298.59;107047;1251;68294;-80
2022/05/30 04:19:40;;;;;;;12.20;9.10;;;;;;;15.36;90.90;100299.69;106825;1252;73107;-78
2022/05/30 04:22:10;;;;;;;12.90;9.60;;;;;;;15.39;90.84;100303.86;107153;1250;62776;-77
2022/05/30 04:24:58;;;;;;;11.80;9.90;;;;;;;15.44;90.33;100356.84;107117;1250;59178;-75
2022/05/30 04:27:27;;;;;;;10.90;9.70;;;;;;;15.49;89.47;100372.18;107161;1251;72019;-73
2022/05/30 04:29:56;;;;;;;12.80;8.90;;;;;;;15.48;89.41;100363.79;107258;1251;70693;-78
2022/05/30 04:32:28;;;;;;;13.30;10.00;;;;;;;15.46;89.09;100363.53;106922;1250;70559;-73
2022/05/30 04:34:57;;;;;;;13.40;10.50;;;;;;;15.47;91.33;100382.23;107272;1250;73565;-68
2022/05/30 04:37:28;;;;;;;13.20;10.30;;;;;;;15.36;91.61;100391.30;107140;1250;63398;-69
2022/05/30 04:40:17;;;;;;;15.50;11.10;;;;;;;15.39;92.19;100398.38;107085;1250;59930;-72
2022/05/30 04:43:06;;;;;;;13.50;10.90;;;;;;;15.33;92.30;100396.00;107068;1251;72431;-70
2022/05/30 04:46:19;;;;;;;17.60;11.60;;;;;;;15.33;92.14;100396.94;107077;1251;69814;-69
2022/05/30 04:48:51;;;;;;;15.50;11.30;;;;;;;15.29;93.04;100394.88;107021;1253;68058;-70
2022/05/30 04:51:20;;;;;;;20.20;11.00;;;;;;;15.25;92.93;100386.48;107097;1251;73576;-68
2022/05/30 04:53:49;;;;;;;12.90;10.50;;;;;;;15.28;92.95;100381.42;107186;1251;61708;-70
2022/05/30 04:56:36;;;;;;;13.50;11.00;;;;;;;15.31;92.46;100379.58;107288;1249;59499;-70
2022/05/30 04:59:06;;;;;;;14.40;11.00;;;;;;;15.35;92.50;100369.71;107310;1250;73317;-69
2022/05/30 05:01:37;;;;;;;13.30;9.30;;;;;;;15.36;91.90;100373.10;107199;1250;71576;-72
2022/05/30 05:04:10;;;;;;;15.80;10.50;;;;;;;15.41;90.99;100369.61;106953;1251;69606;-71
2022/05/30 05:06:45;;;;;;;13.50;9.80;;;;;;;15.48;91.06;100367.50;106965;1251;72208;-71
2022/05/30 05:09:17;;;;;;;11.60;9.60;;;;;;;15.55;90.75;100365.42;106997;1250;61354;-71
2022/05/30 05:12:05;;;;;;;12.90;9.20;;;;;;;15.57;90.39;100366.11;107419;1250;59581;-70
2022/05/30 05:15:36;;;;;;;13.20;10.00;;;;;;;15.68;90.09;100368.42;107321;1250;72276;-71
2022/05/30 05:18:11;;;;;;;13.30;9.90;;;;;;;15.73;89.40;100371.23;107359;1249;70935;-71
2022/05/30 05:20:42;;;;;;;15.00;10.10;;;;;;;15.76;89.50;100367.04;107485;1251;71463;-72
2022/05/30 05:23:14;;;;;;;10.40;9.30;;;;;;;15.81;89.40;100379.36;107179;1251;71634;-72
2022/05/30 05:25:55;;;;;;;12.80;9.60;;;;;;;15.90;89.30;100386.38;107543;1250;60524;-70
2022/05/30 05:28:31;;;;;;;10.70;9.50;;;;;;;15.80;88.93;100392.32;107314;1250;60288;-70
2022/05/30 05:31:02;;;;;;;12.60;9.20;;;;;;;15.67;89.34;100409.89;107126;1251;73380;-71
2022/05/30 05:33:31;;;;;;;10.70;9.30;;;;;;;15.76;88.87;100430.81;107014;1251;71399;-71
2022/05/30 05:36:00;;;;;;;10.60;8.60;;;;;;;15.79;88.66;100441.58;107222;1249;71124;-71
2022/05/30 05:38:29;;;;;;;27.40;23.40;;;;;;;15.78;87.70;100441.98;107189;1250;72761;-69
2022/05/30 05:41:09;;;;;;;19.60;15.10;;;;;;;15.77;87.64;100447.55;107191;1250;62823;-69
2022/05/30 05:43:56;;;;;;;11.10;8.30;;;;;;;15.76;87.31;100442.02;107050;1250;59326;-70
2022/05/30 05:46:29;;;;;;;9.40;8.10;;;;;;;15.72;87.06;100450.67;107184;1249;73663;-71
2022/05/30 05:49:00;;;;;;;12.10;8.80;;;;;;;15.77;86.91;100458.94;107124;1251;72066;-69
2022/05/30 05:51:29;;;;;;;11.30;8.10;;;;;;;15.83;87.15;100466.46;107225;1251;68028;-69
2022/05/30 05:54:05;;;;;;;10.00;8.30;;;;;;;15.90;87.28;100450.65;107211;1250;74274;-70
2022/05/30 05:56:36;;;;;;;14.10;8.30;;;;;;;15.95;87.09;100441.63;107115;1251;61923;-72
2022/05/30 05:59:10;;;;;;;10.80;8.20;;;;;;;16.00;86.72;100435.63;107229;1248;59018;-74
2022/05/30 06:01:40;;;;;;;14.30;7.80;;;;;;;15.98;86.58;100425.95;107121;1250;72522;-72
2022/05/30 06:04:11;;;;;;;11.00;7.60;;;;;;;16.07;86.54;100423.67;107249;1250;72552;-73
2022/05/30 06:06:46;;;;;;;10.40;7.80;;;;;;;16.16;85.52;100431.56;107344;1250;69236;-71
2022/05/30 06:09:31;;;;;;;11.90;7.80;;;;;;;16.24;86.01;100437.25;107287;1251;73520;-72
2022/05/30 06:12:10;;;;;;;10.20;8.40;;;;;;;16.33;85.70;100444.79;107359;1249;63778;-72
2022/05/30 06:14:40;;;;;;;11.60;8.20;;;;;;;16.45;85.59;100454.30;107367;1250;59276;-74
2022/05/30 06:17:10;;;;;;;12.00;8.30;;;;;;;16.54;85.17;100457.29;107224;1250;73600;-69
2022/05/30 06:19:38;;;;;;;11.30;8.40;;;;;;;16.60;84.90;100460.85;107066;1251;72656;-74
2022/05/30 06:22:09;;;;;;;11.80;8.20;;;;;;;16.68;84.18;100462.52;107353;1251;70625;-71
2022/05/30 06:24:38;;;;;;;11.10;7.80;;;;;;;16.75;85.06;100458.81;107327;1250;71695;-70
2022/05/30 06:27:26;;;;;;;9.20;7.40;;;;;;;16.80;84.32;100460.90;107254;1251;62168;-71
2022/05/30 06:30:14;;;;;;;10.10;7.40;;;;;;;16.93;83.60;100466.30;107302;1250;58773;-70
2022/05/30 06:32:43;;;;;;;8.30;7.00;;;;;;;16.89;81.95;100468.30;107223;1250;72478;-71
2022/05/30 06:35:23;;;;;;;12.30;6.20;;;;;;;16.90;81.17;100473.62;107332;1251;70945;-71
2022/05/30 06:37:52;;;;;;;8.40;6.40;;;;;;;17.03;80.50;100477.46;107343;1250;70682;-70
2022/05/30 06:40:22;;;;;;;9.90;4.80;;;;;;;17.08;80.45;100480.95;107240;1250;74872;-71
2022/05/30 06:42:58;;;;;;;10.10;6.60;;;;;;;17.13;80.37;100478.80;107401;1250;63735;-71
2022/05/30 06:45:31;;;;;;;11.70;5.80;;;;;;;17.04;79.83;100477.70;107328;1250;59620;-71
2022/05/30 06:48:19;;;;;;;8.70;5.70;;;;;;;17.00;80.17;100472.25;107362;1251;74810;-67
2022/05/30 06:51:14;;;;;;;7.50;5.60;;;;;;;17.16;79.58;100469.31;107231;1250;70184;-72
2022/05/30 06:53:44;;;;;;;7.50;4.70;;;;;;;17.18;78.74;100471.59;107334;1250;68613;-71
2022/05/30 06:56:24;;;;;;;9.30;5.40;;;;;;;17.14;78.43;100462.91;107269;1251;74874;-70
2022/05/30 06:58:54;;;;;;;9.80;5.50;;;;;;;17.33;78.61;100467.45;107297;1250;61837;-73
2022/05/30 07:01:41;;;;;;;10.20;5.80;;;;;;;17.51;78.46;100468.69;107242;1250;59756;-76
2022/05/30 07:05:10;;;;;;;7.30;5.30;;;;;;;17.64;76.86;100478.55;106777;1258;74474;-73
2022/05/30 07:07:58;;;;;;;9.40;5.60;;;;;;;17.68;76.45;100481.14;106643;1257;72076;-66
2022/05/30 07:10:31;;;;;;;12.20;5.20;;;;;;;17.76;75.95;100482.47;107219;1250;69346;-67
2022/05/30 07:13:09;;;;;;;9.60;5.20;;;;;;;17.78;76.01;100479.44;107356;1250;73215;-67
2022/05/30 07:15:39;;;;;;;10.30;5.20;;;;;;;17.80;75.84;100470.45;107242;1251;59639;-66
2022/05/30 07:18:16;;;;;;;6.50;4.80;;;;;;;17.92;75.00;100468.39;107344;1251;60549;-66
2022/05/30 07:20:45;;;;;;;9.20;5.30;;;;;;;17.88;74.98;100472.70;107235;1251;74748;-74
2022/05/30 07:23:49;;;;;;;11.10;5.40;;;;;;;18.24;74.67;100472.30;107386;1251;62035;-74
2022/05/30 07:26:37;;;;;;;12.60;5.80;;;;;;;18.42;73.85;100480.27;107311;1251;70378;-71
2022/05/30 07:29:26;;;;;;;8.10;4.90;;;;;;;18.43;72.79;100481.42;107211;1251;74378;-72
2022/05/30 07:32:39;;;;;;;7.50;4.30;;;;;;;18.59;72.58;100476.52;106866;1250;61582;-70
2022/05/30 07:35:26;;;;;;;12.20;5.10;;;;;;;18.45;72.59;100477.11;107243;1250;58272;-69
2022/05/30 07:38:37;;;;;;;14.10;4.80;;;;;;;18.48;72.88;100479.64;107093;1251;75140;-71
2022/05/30 07:41:09;;;;;;;8.90;5.10;;;;;;;18.37;72.92;100475.34;107229;1249;62340;-69
2022/05/30 07:43:52;;;;;;;8.80;4.50;;;;;;;18.49;72.98;100482.71;107099;1250;70285;-70
2022/05/30 07:46:25;;;;;;;9.30;5.00;;;;;;;18.55;72.75;100476.75;107173;1250;75073;-71
2022/05/30 07:49:41;;;;;;;8.60;4.40;;;;;;;18.64;72.30;100469.52;106964;1250;59640;-71
2022/05/30 07:52:52;;;;;;;12.10;4.90;;;;;;;18.94;71.74;100469.13;107189;1251;60379;-72
2022/05/30 07:55:41;;;;;;;6.50;4.40;;;;;;;18.93;70.98;100472.17;107169;1250;75554;-71
2022/05/30 07:58:12;;;;;;;7.90;4.80;;;;;;;19.11;71.04;100474.20;107115;1250;71531;-70
2022/05/30 08:00:44;;;;;;;11.40;5.30;;;;;;;19.24;70.58;100473.84;107212;1250;68510;-70
2022/05/30 08:03:16;;;;;;;8.10;4.40;;;;;;;19.25;70.51;100476.55;107056;1251;73892;-72
2022/05/30 08:06:13;;;;;;;9.70;4.20;;;;;;;19.29;69.98;100479.08;107043;1250;62630;-70
2022/05/30 08:09:01;;;;;;;8.50;4.50;;;;;;;19.14;70.64;100475.64;107272;1250;60571;-72
2022/05/30 08:11:29;;;;;;;11.00;4.70;;;;;;;19.36;69.99;100473.88;107312;1250;74219;-73
2022/05/30 08:14:07;;;;;;;10.80;5.30;;;;;;;19.31;70.24;100474.27;107326;1251;61022;-73
2022/05/30 08:16:37;;;;;;;9.20;4.70;;;;;;;19.60;70.17;100473.16;107300;1250;70959;-73
2022/05/30 08:19:24;;;;;;;12.50;5.20;;;;;;;19.71;69.51;100468.90;107004;1254;62396;-72
2022/05/30 08:22:14;;;;;;;12.50;5.00;;;;;;;19.59;69.55;100463.46;107210;1253;59663;-72
2022/05/30 08:24:51;;;;;;;7.60;4.10;;;;;;;19.72;69.15;100458.73;107051;1253;60648;-71
2022/05/30 08:27:22;;;;;;;6.70;4.50;;;;;;;19.76;68.23;100453.02;107032;1254;63466;-72
2022/05/30 08:30:06;;;;;;;8.50;4.40;;;;;;;19.82;68.04;100454.22;106785;1254;61008;-73
2022/05/30 08:32:42;;;;;;;9.90;5.80;;;;;;;19.65;68.30;100449.80;106932;1254;60046;-74
2022/05/30 08:35:30;;;;;;;9.00;4.60;;;;;;;19.73;68.23;100443.77;106996;1253;62535;-73
2022/05/30 08:37:59;;;;;;;11.80;4.70;;;;;;;19.79;68.43;100449.38;106955;1254;61174;-71
2022/05/30 08:43:32;;;;;;;11.90;4.40;;;;;;;20.50;65.91;100457.02;107116;1252;63034;-72
2022/05/30 08:46:36;;;;;;;13.20;4.60;;;;;;;20.86;64.83;100460.02;107300;1250;60891;-72
2022/05/30 08:49:22;;;;;;;10.60;5.70;;;;;;;21.27;64.36;100459.09;107329;1251;59537;-71
2022/05/30 08:52:11;;;;;;;9.30;5.50;;;;;;;21.34;63.14;100465.35;107390;1249;62488;-73
2022/05/30 08:55:07;;;;;;;9.80;4.50;;;;;;;21.38;62.90;100468.91;107374;1250;59738;-72
2022/05/30 08:58:03;;;;;;;8.70;4.10;;;;;;;21.27;63.02;100467.79;107372;1250;58908;-70
2022/05/30 09:00:38;;;;;;;9.10;4.60;;;;;;;21.40;62.78;100459.25;107382;1250;62882;-73
2022/05/30 09:04:16;;;;;;;10.60;4.70;;;;;;;21.58;63.55;100457.41;107375;1250;72208;-73
2022/05/30 09:07:02;;;;;;;8.80;4.40;;;;;;;21.73;62.80;100464.15;107310;1250;60216;-74
2022/05/30 09:10:03;;;;;;;7.50;4.20;;;;;;;21.55;61.81;100470.39;106871;1250;610716;-71
2022/05/30 09:12:43;;;;;;;9.80;3.80;;;;;;;21.83;61.89;100465.89;107230;1251;59731;-70
2022/05/30 09:15:40;;;;;;;7.90;4.10;;;;;;;22.05;61.04;100467.57;107378;1250;59107;-71
2022/05/30 09:18:20;;;;;;;5.10;3.40;;;;;;;21.98;61.76;100472.20;107244;1250;74476;-70
2022/05/30 09:20:49;;;;;;;8.40;3.90;;;;;;;22.40;59.93;100472.08;107242;1250;72332;-74
2022/05/30 09:23:24;;;;;;;6.40;3.70;;;;;;;22.85;59.79;100479.75;107536;1249;70259;-72
2022/05/30 09:26:00;;;;;;;9.10;4.10;;;;;;;23.07;58.03;100483.86;107267;1250;74771;-73
2022/05/30 09:29:20;;;;;;;6.40;3.40;;;;;;;23.06;56.60;100492.70;107353;1250;59725;-74
2022/05/30 09:32:18;;;;;;;5.70;3.00;;;;;;;22.52;57.62;100500.00;107323;1250;61411;-74
2022/05/30 09:35:32;;;;;;;7.00;3.90;;;;;;;22.57;57.65;100499.65;107294;1250;64136;-75
2022/05/30 09:38:22;;;;;;;9.90;3.80;;;;;;;22.67;57.38;100497.94;107345;1249;71694;-76
2022/05/30 09:41:23;;;;;;;6.30;3.50;;;;;;;22.88;58.04;100503.45;107358;1250;72043;-74
2022/05/30 09:44:11;;;;;;;9.80;4.30;;;;;;;22.95;57.11;100501.45;107451;1250;64151;-77
2022/05/30 09:46:49;;;;;;;7.40;4.00;;;;;;;22.86;57.18;100499.91;107216;1251;61900;-74
2022/05/30 09:50:21;;;;;;;8.70;3.50;;;;;;;23.21;56.04;100501.95;107141;1253;61314;-76
2022/05/30 09:52:52;;;;;;;6.60;3.80;;;;;;;23.35;55.74;100498.02;107104;1251;74868;-77
2022/05/30 09:55:37;;;;;;;8.10;3.60;;;;;;;22.83;57.26;100497.73;107458;1250;71836;-76
2022/05/30 09:58:13;;;;;;;8.30;4.00;;;;;;;23.49;56.09;100495.67;107414;1250;69614;-79
2022/05/30 10:01:00;;;;;;;7.90;3.60;;;;;;;23.57;55.98;100498.73;107484;1250;63584;-75
2022/05/30 10:03:38;;;;;;;9.50;3.90;;;;;;;23.74;55.21;100504.20;107473;1250;60467;-72
2022/05/30 10:07:10;;;;;;;6.20;3.60;;;;;;;23.69;55.04;100490.95;107428;1250;61652;-72
2022/05/30 10:10:28;;;;;;;7.00;3.80;;;;;;;22.59;58.23;100491.10;107569;1250;74980;-75
2022/05/30 10:13:06;;;;;;;9.30;4.00;;;;;;;22.90;57.73;100500.27;107366;1250;72803;-76
2022/05/30 11:35:48;;;;;;;4.60;3.10;;;;;;;26.84;46.30;100464.56;104676;1286;600368;-74
2022/05/30 11:38:45;;;;;;;7.30;3.90;;;;;;;27.18;45.50;100466.23;106138;1266;57408;-76
2022/05/30 11:41:28;;;;;;;6.30;3.40;;;;;;;27.61;44.48;100467.48;107133;1257;60264;-76
2022/05/30 11:44:23;;;;;;;6.10;3.10;;;;;;;27.30;44.10;100467.63;106774;1256;61893;-76
2022/05/30 11:47:13;;;;;;;10.50;3.50;;;;;;;27.56;43.91;100461.98;106662;1257;71838;-77
2022/05/30 11:50:03;;;;;;;7.80;3.60;;;;;;;28.14;42.50;100460.64;106623;1253;432816;-79
2022/05/30 11:53:53;;;;;;;7.80;3.40;;;;;;;27.62;43.24;100459.20;107123;1253;65101;-75
2022/05/30 11:56:58;;;;;;;6.90;2.90;;;;;;;27.77;42.63;100461.27;106272;1261;61730;-75
2022/05/30 12:00:13;;;;;;;6.50;2.90;;;;;;;27.87;42.80;100461.45;106915;1253;62039;-77
2022/05/30 12:02:57;;;;;;;6.10;3.00;;;;;;;29.74;38.65;100462.79;106938;1253;62140;-73
2022/05/30 12:05:48;;;;;;;7.00;2.90;;;;;;;29.70;37.66;100464.67;106951;1253;60955;-74
2022/05/30 12:08:50;;;;;;;6.70;2.80;;;;;;;27.86;41.65;100461.30;106912;1254;69773;-71
2022/05/30 12:12:12;;;;;;;5.20;2.90;;;;;;;28.21;41.37;100460.30;106925;1254;75690;-75
2022/05/30 12:15:17;;;;;;;5.60;3.70;;;;;;;28.38;41.47;100458.58;107207;1253;58943;-74
2022/05/30 12:24:19;;;;;;;6.00;2.90;;;;;;;27.89;42.89;100463.70;107036;1254;61650;-72
2022/05/30 12:26:48;;;;;;;5.80;2.40;;;;;;;27.98;42.39;100467.87;106957;1256;70952;-75
2022/05/30 12:29:35;;;;;;;5.60;3.00;;;;;;;27.70;43.22;100465.98;107258;1254;62882;-73
2022/05/30 12:32:29;;;;;;;4.70;3.00;;;;;;;27.96;43.22;100465.30;107066;1253;58490;-79
2022/05/30 12:35:01;;;;;;;5.20;3.50;;;;;;;28.47;41.29;100465.17;107055;1254;58895;-78
2022/05/30 12:37:45;;;;;;;6.70;2.80;;;;;;;28.50;40.61;100462.61;107024;1254;71737;-79
2022/05/30 12:40:25;;;;;;;8.80;3.10;;;;;;;27.31;43.42;100455.85;106995;1254;71788;-73
2022/05/30 12:43:33;;;;;;;5.50;2.90;;;;;;;28.07;41.97;100455.66;106909;1254;60344;-73
2022/05/30 12:46:01;;;;;;;8.80;3.10;;;;;;;29.12;39.93;100456.41;106884;1254;73601;-74
2022/05/30 12:48:58;;;;;;;8.50;3.00;;;;;;;29.38;39.08;100459.29;106843;1255;60876;-77
2022/05/30 12:51:39;;;;;;;5.40;2.90;;;;;;;29.24;38.77;100459.48;106904;1254;58894;-74
2022/05/30 12:54:09;;;;;;;7.70;2.80;;;;;;;28.66;39.33;100458.89;108123;1255;70542;-74
2022/05/30 12:56:37;;;;;;;8.10;2.90;;;;;;;28.67;39.50;100461.34;106790;1256;72818;-76
2022/05/30 12:59:16;;;;;;;9.90;6.20;;;;;;;29.18;38.66;100460.61;106953;1253;59562;-75
2022/05/30 13:01:45;;;;;;;5.10;2.60;;;;;;;28.77;39.07;100462.63;107207;1250;73089;-74
2022/05/30 13:04:21;;;;;;;8.60;2.70;;;;;;;28.93;38.64;100467.02;107202;1251;57443;-78
2022/05/30 13:06:58;;;;;;;5.40;2.60;;;;;;;28.89;38.29;100466.16;107395;1250;60690;-74
2022/05/30 13:09:37;;;;;;;6.40;2.80;;;;;;;28.74;38.57;100460.88;107239;1251;63814;-73
2022/05/30 13:12:14;;;;;;;7.50;2.90;;;;;;;28.80;39.12;100462.14;107220;1250;69677;-80
2022/05/30 13:15:03;;;;;;;4.80;2.70;;;;;;;28.19;40.61;100465.44;107042;1253;60059;-77
2022/05/30 13:18:17;;;;;;;9.00;2.70;;;;;;;27.83;41.27;100467.07;107165;1251;62320;-74
2022/05/30 13:20:52;;;;;;;6.20;2.90;;;;;;;28.13;40.57;100468.68;107235;1250;61361;-83
2022/05/30 13:23:31;;;;;;;7.40;3.50;;;;;;;28.30;39.93;100465.40;107231;1251;58937;-84
2022/05/30 13:26:11;;;;;;;7.50;2.80;;;;;;;28.17;40.63;100465.13;107242;1251;72819;-80
2022/05/30 13:28:43;;;;;;;12.30;7.10;;;;;;;28.73;38.60;100463.36;107342;1249;72155;-81
2022/05/30 13:31:14;;;;;;;4.30;2.70;;;;;;;27.94;39.90;100464.97;107066;1253;70372;-79
2022/05/30 13:33:50;;;;;;;8.20;3.40;;;;;;;28.22;39.70;100462.33;107248;1253;64820;-79
2022/05/30 13:36:33;;;;;;;7.40;3.50;;;;;;;27.56;40.93;100461.16;107124;1253;58964;-80
2022/05/30 13:39:04;;;;;;;7.80;2.90;;;;;;;27.47;40.39;100459.30;107035;1253;58965;-78
2022/05/30 13:41:39;;;;;;;5.00;2.60;;;;;;;27.40;40.50;100461.05;107212;1253;73703;-81
2022/05/30 13:44:34;;;;;;;9.10;6.20;;;;;;;27.17;41.27;100457.63;107275;1253;61917;-79